createdAt,value
2022-12-17T00:02:19.690Z,-4.80
2022-12-17T00:07:41.813Z,-4.70
2022-12-17T00:13:06.538Z,-4.70
2022-12-17T00:18:28.372Z,-4.90
2022-12-17T00:23:49.772Z,-4.80
2022-12-17T00:29:11.106Z,-5.00
2022-12-17T00:34:32.514Z,-5.00
2022-12-17T00:39:59.060Z,-5.00
2022-12-17T00:45:23.562Z,-5.10
2022-12-17T00:50:44.730Z,-5.00
2022-12-17T00:56:06.340Z,-5.10
2022-12-17T01:01:28.079Z,-5.00
2022-12-17T01:06:49.619Z,-5.10
2022-12-17T01:12:11.104Z,-5.00
2022-12-17T01:17:37.931Z,-4.90
2022-12-17T01:23:02.317Z,-4.90
2022-12-17T01:28:24.470Z,-4.90
2022-12-17T01:33:45.651Z,-4.80
2022-12-17T01:39:06.950Z,-5.00
2022-12-17T01:45:02.689Z,-4.90
2022-12-17T01:50:25.021Z,-4.80
2022-12-17T01:55:46.828Z,-4.90
2022-12-17T02:01:08.367Z,-4.90
2022-12-17T02:06:46.605Z,-4.90
2022-12-17T02:12:30.695Z,-4.90
2022-12-17T02:17:59.970Z,-4.90
2022-12-17T02:23:54.116Z,-4.90
2022-12-17T02:29:21.405Z,-4.80
2022-12-17T02:34:53.573Z,-4.80
2022-12-17T02:40:15.749Z,-4.90
2022-12-17T02:45:40.418Z,-4.80
2022-12-17T02:51:05.341Z,-4.70
2022-12-17T02:56:26.806Z,-4.70
2022-12-17T03:01:48.363Z,-4.80
2022-12-17T03:07:09.966Z,-4.90
2022-12-17T03:12:31.763Z,-4.80
2022-12-17T03:17:53.060Z,-4.80
2022-12-17T03:23:25.052Z,-4.70
2022-12-17T03:28:46.290Z,-4.60
2022-12-17T03:34:07.640Z,-4.60
2022-12-17T03:39:28.820Z,-4.70
2022-12-17T03:44:50.167Z,-4.60
2022-12-17T03:50:11.509Z,-4.60
2022-12-17T03:55:32.739Z,-4.50
2022-12-17T04:00:54.098Z,-4.50
2022-12-17T04:06:16.010Z,-4.50
2022-12-17T04:11:37.942Z,-4.50
2022-12-17T04:16:59.805Z,-4.50
2022-12-17T04:22:21.225Z,-4.50
2022-12-17T04:27:43.000Z,-4.50
2022-12-17T04:33:04.367Z,-4.40
2022-12-17T04:38:25.812Z,-4.40
2022-12-17T04:43:47.055Z,-4.40
2022-12-17T04:49:08.405Z,-4.60
2022-12-17T04:54:30.247Z,-4.50
2022-12-17T04:59:51.704Z,-4.40
2022-12-17T05:05:13.108Z,-4.40
2022-12-17T05:10:34.625Z,-4.40
2022-12-17T05:15:56.055Z,-4.40
2022-12-17T05:21:18.966Z,-4.40
2022-12-17T05:26:45.754Z,-4.50
2022-12-17T05:32:09.074Z,-4.40
2022-12-17T05:37:30.746Z,-4.40
2022-12-17T05:42:52.025Z,-4.30
2022-12-17T05:48:17.380Z,-4.30
2022-12-17T05:53:39.265Z,-4.30
2022-12-17T05:59:00.844Z,-4.20
2022-12-17T06:04:22.865Z,-4.30
2022-12-17T06:09:44.299Z,-4.30
2022-12-17T06:15:07.610Z,-4.20
2022-12-17T06:20:30.169Z,-4.30
2022-12-17T06:26:02.135Z,-4.20
2022-12-17T06:31:23.638Z,-4.30
2022-12-17T06:36:45.121Z,-4.20
2022-12-17T06:42:06.539Z,-4.20
2022-12-17T06:47:29.300Z,-4.10
2022-12-17T06:52:51.019Z,-4.20
2022-12-17T06:58:19.014Z,-4.10
2022-12-17T07:03:40.454Z,-4.20
2022-12-17T07:09:01.837Z,-4.10
2022-12-17T07:14:23.105Z,-4.10
2022-12-17T07:19:44.432Z,-4.00
2022-12-17T07:25:05.920Z,-3.90
2022-12-17T07:30:27.754Z,-3.90
2022-12-17T07:35:49.131Z,-4.00
2022-12-17T07:41:10.851Z,-3.90
2022-12-17T07:46:33.072Z,-3.90
2022-12-17T07:51:54.673Z,-3.90
2022-12-17T07:57:16.736Z,-3.80
2022-12-17T08:02:38.515Z,-3.90
2022-12-17T08:08:00.644Z,-3.90
2022-12-17T08:13:24.432Z,-3.70
2022-12-17T08:18:46.470Z,-3.70
2022-12-17T08:24:07.794Z,-3.60
2022-12-17T08:29:29.112Z,-3.70
2022-12-17T08:34:50.412Z,-3.50
2022-12-17T08:40:11.897Z,-3.60
2022-12-17T08:45:34.050Z,-3.40
2022-12-17T08:50:55.519Z,-3.50
2022-12-17T08:56:19.487Z,-3.40
2022-12-17T09:01:41.393Z,-3.40
2022-12-17T09:07:03.261Z,-3.30
2022-12-17T09:12:25.017Z,-3.20
2022-12-17T09:17:46.506Z,-3.30
2022-12-17T09:23:08.155Z,-3.20
2022-12-17T09:28:29.754Z,-3.10
2022-12-17T09:33:51.770Z,-3.10
2022-12-17T09:39:13.289Z,-3.30
2022-12-17T09:44:40.722Z,-3.20
2022-12-17T09:50:02.458Z,-3.10
2022-12-17T09:55:38.802Z,-3.10
2022-12-17T10:01:01.236Z,-3.00
2022-12-17T10:06:30.735Z,-2.90
2022-12-17T10:11:54.118Z,-2.90
2022-12-17T10:17:15.504Z,-2.70
2022-12-17T10:22:39.666Z,-2.80
2022-12-17T10:28:01.660Z,-2.70
2022-12-17T10:33:39.311Z,-2.80
2022-12-17T10:39:00.742Z,-2.60
2022-12-17T10:44:37.844Z,-2.50
2022-12-17T10:49:59.321Z,-2.70
2022-12-17T10:55:24.212Z,-2.40
2022-12-17T11:00:52.624Z,-2.40
2022-12-17T11:06:14.776Z,-2.40
2022-12-17T11:11:36.526Z,-2.40
2022-12-17T11:17:17.108Z,-2.30
2022-12-17T11:22:55.995Z,-2.40
2022-12-17T11:28:42.464Z,-2.60
2022-12-17T11:34:21.650Z,-2.50
2022-12-17T11:39:50.565Z,-2.30
2022-12-17T11:45:54.895Z,-2.60
2022-12-17T11:51:34.646Z,-2.50
2022-12-17T11:57:19.004Z,-2.40
2022-12-17T12:02:46.591Z,-2.40
2022-12-17T12:08:43.688Z,-2.10
2022-12-17T12:14:41.045Z,-2.00
2022-12-17T12:20:15.911Z,-2.00
2022-12-17T12:25:57.467Z,-1.90
2022-12-17T12:31:27.949Z,-2.20
2022-12-17T12:36:51.513Z,-2.30
2022-12-17T12:42:20.034Z,-1.90
2022-12-17T12:48:04.183Z,-2.30
2022-12-17T12:53:29.627Z,-2.00
2022-12-17T12:58:53.294Z,-2.30
2022-12-17T13:04:17.671Z,-2.10
2022-12-17T13:09:23.443Z,-2.10
2022-12-17T13:14:29.522Z,-2.00
2022-12-17T13:19:32.543Z,-2.10
2022-12-17T13:24:35.688Z,-2.20
2022-12-17T13:29:39.083Z,-2.20
2022-12-17T13:35:12.705Z,-2.00
2022-12-17T13:40:49.191Z,-1.90
2022-12-17T13:45:53.077Z,-2.00
2022-12-17T13:51:03.265Z,-1.90
2022-12-17T13:56:06.308Z,-1.80
2022-12-17T14:01:12.077Z,-2.00
2022-12-17T14:06:15.375Z,-2.00
2022-12-17T14:11:39.184Z,-1.90
2022-12-17T14:16:48.940Z,-1.80
2022-12-17T14:21:54.396Z,-1.90
2022-12-17T14:27:00.429Z,-2.10
2022-12-17T14:32:24.223Z,-2.10
2022-12-17T14:37:28.522Z,-2.10
2022-12-17T14:42:35.366Z,-2.10
2022-12-17T14:47:39.077Z,-2.10
2022-12-17T14:52:42.087Z,-2.30
2022-12-17T14:57:45.135Z,-2.30
2022-12-17T15:02:54.616Z,-2.50
2022-12-17T15:07:57.919Z,-2.50
2022-12-17T15:13:01.229Z,-2.60
2022-12-17T15:18:04.392Z,-2.60
2022-12-17T15:23:11.402Z,-2.70
2022-12-17T15:28:16.290Z,-2.60
2022-12-17T15:33:19.342Z,-2.60
2022-12-17T15:38:22.321Z,-2.60
2022-12-17T15:43:25.338Z,-2.60
2022-12-17T15:48:28.331Z,-2.60
2022-12-17T15:53:31.446Z,-2.60
2022-12-17T15:58:34.761Z,-2.60
2022-12-17T16:03:38.214Z,-2.60
2022-12-17T16:08:41.542Z,-2.60
2022-12-17T16:13:45.038Z,-2.60
2022-12-17T16:18:48.075Z,-2.70
2022-12-17T16:23:51.084Z,-2.80
2022-12-17T16:28:54.195Z,-2.90
2022-12-17T16:33:57.189Z,-3.10
2022-12-17T16:39:00.156Z,-3.00
2022-12-17T16:44:03.170Z,-3.00
2022-12-17T16:49:18.763Z,-3.00
2022-12-17T16:54:26.073Z,-3.00
2022-12-17T16:59:30.192Z,-3.10
2022-12-17T17:04:34.174Z,-3.30
2022-12-17T17:09:37.675Z,-3.40
2022-12-17T17:14:40.642Z,-3.50
2022-12-17T17:19:43.686Z,-3.70
2022-12-17T17:24:46.756Z,-3.90
2022-12-17T17:29:50.312Z,-4.00
2022-12-17T17:34:53.725Z,-4.30
2022-12-17T17:39:56.729Z,-4.40
2022-12-17T17:44:59.775Z,-4.70
2022-12-17T17:50:02.838Z,-4.80
2022-12-17T17:55:06.346Z,-5.00
2022-12-17T18:00:10.093Z,-5.20
2022-12-17T18:05:13.235Z,-5.40
2022-12-17T18:10:16.332Z,-5.60
2022-12-17T18:15:19.365Z,-5.80
2022-12-17T18:20:22.350Z,-5.90
2022-12-17T18:25:25.578Z,-6.10
2022-12-17T18:30:28.598Z,-6.20
2022-12-17T18:35:31.692Z,-6.40
2022-12-17T18:40:36.563Z,-6.60
2022-12-17T18:45:39.634Z,-6.70
2022-12-17T18:50:42.671Z,-6.90
2022-12-17T18:55:45.739Z,-7.10
2022-12-17T19:00:50.620Z,-7.20
2022-12-17T19:05:54.421Z,-7.30
2022-12-17T19:11:03.499Z,-7.40
2022-12-17T19:16:12.792Z,-7.60
2022-12-17T19:21:15.870Z,-7.70
2022-12-17T19:26:21.618Z,-7.80
2022-12-17T19:31:28.991Z,-7.90
2022-12-17T19:36:34.902Z,-8.10
2022-12-17T19:41:37.931Z,-8.10
2022-12-17T19:46:41.476Z,-8.20
2022-12-17T19:51:45.093Z,-8.40
2022-12-17T19:56:48.113Z,-8.50
2022-12-17T20:01:51.252Z,-8.60
2022-12-17T20:06:55.302Z,-8.60
2022-12-17T20:11:58.291Z,-8.80
2022-12-17T20:17:02.849Z,-8.80
2022-12-17T20:22:06.918Z,-8.80
2022-12-17T20:27:11.129Z,-8.90
2022-12-17T20:32:14.448Z,-9.00
2022-12-17T20:37:17.587Z,-9.00
2022-12-17T20:42:20.658Z,-9.10
2022-12-17T20:47:23.837Z,-9.20
2022-12-17T20:52:26.894Z,-9.20
2022-12-17T20:57:29.938Z,-9.20
2022-12-17T21:02:33.183Z,-9.30
2022-12-17T21:07:36.435Z,-9.40
2022-12-17T21:12:57.885Z,-9.40
2022-12-17T21:18:01.030Z,-9.50
2022-12-17T21:23:04.192Z,-9.60
2022-12-17T21:28:07.165Z,-9.60
2022-12-17T21:33:10.248Z,-9.60
2022-12-17T21:38:13.348Z,-9.60
2022-12-17T21:43:16.363Z,-9.60
2022-12-17T21:48:19.433Z,-9.70
2022-12-17T21:53:23.039Z,-9.70
2022-12-17T21:58:26.393Z,-9.70
2022-12-17T22:03:30.734Z,-9.60
2022-12-17T22:08:33.921Z,-9.50
2022-12-17T22:14:05.022Z,-9.60
2022-12-17T22:19:13.199Z,-9.60
2022-12-17T22:24:19.956Z,-9.60
2022-12-17T22:29:41.286Z,-9.60
2022-12-17T22:35:51.368Z,-9.80
2022-12-17T22:44:02.295Z,-9.80
2022-12-17T22:45:33.534Z,-9.90
2022-12-17T22:50:38.890Z,-9.90
2022-12-17T22:55:55.111Z,-10.00
2022-12-17T23:01:00.701Z,-10.10
2022-12-17T23:06:08.661Z,-10.10
2022-12-17T23:11:14.589Z,-10.20
2022-12-17T23:16:18.157Z,-10.30
2022-12-17T23:21:26.016Z,-10.30
2022-12-17T23:26:32.476Z,-10.30
2022-12-17T23:31:40.515Z,-10.40
2022-12-17T23:36:43.669Z,-10.40
2022-12-17T23:41:46.682Z,-10.50
2022-12-17T23:46:49.763Z,-10.60
2022-12-17T23:51:52.872Z,-10.70
2022-12-17T23:56:55.985Z,-10.80
